Time;durP1;ratioP1;P1;durP2;ratioP2;P2;SDS_P1;SDS_P2;PMS_P1;PMS_P2;Temp;Humidity;BMP_temperature;BMP_pressure;BME280_temperature;BME280_humidity;BME280_pressure;Samples;Min_cycle;Max_cycle;Signal;HPM_P1;HPM_P2
2023/06/04 00:02:25;;;;;;;5.60;1.52;;;;;;;;;;5091785;28;20082;-86
2023/06/04 00:04:52;;;;;;;1.30;1.20;;;;;;;;;;5092432;28;20105;-87
2023/06/04 00:07:19;;;;;;;1.35;1.25;;;;;;;;;;5091763;28;20059;-85
2023/06/04 00:09:47;;;;;;;2.72;1.48;;;;;;;;;;5092880;28;20480;-85
2023/06/04 00:12:15;;;;;;;2.63;1.50;;;;;;;;;;5091985;28;20101;-86
2023/06/04 00:14:42;;;;;;;1.60;1.50;;;;;;;;;;5091900;28;20040;-86
2023/06/04 00:17:10;;;;;;;3.80;1.70;;;;;;;;;;5091795;28;20044;-86
2023/06/04 00:19:40;;;;;;;3.58;1.75;;;;;;;;;;5092096;28;20062;-85
2023/06/04 00:22:08;;;;;;;1.55;1.42;;;;;;;;;;5091890;28;20048;-85
2023/06/04 00:24:36;;;;;;;3.15;1.73;;;;;;;;;;5091794;28;20083;-85
2023/06/04 00:27:04;;;;;;;1.60;1.50;;;;;;;;;;5091649;28;20477;-86
2023/06/04 00:29:31;;;;;;;2.08;1.70;;;;;;;;;;5092775;28;20480;-86
2023/06/04 00:31:58;;;;;;;2.50;1.70;;;;;;;;;;5091397;28;20118;-86
2023/06/04 00:34:26;;;;;;;2.35;1.58;;;;;;;;;;5091841;28;20055;-85
2023/06/04 00:36:56;;;;;;;3.70;1.73;;;;;;;;;;5093102;28;20108;-86
2023/06/04 00:39:23;;;;;;;3.22;1.48;;;;;;;;;;5091646;28;20109;-85
2023/06/04 00:41:50;;;;;;;3.08;1.38;;;;;;;;;;5092459;28;20093;-86
2023/06/04 00:44:17;;;;;;;2.45;1.35;;;;;;;;;;5092500;28;20113;-85
2023/06/04 00:46:45;;;;;;;6.82;1.67;;;;;;;;;;5091291;28;20105;-85
2023/06/04 00:49:12;;;;;;;2.75;1.75;;;;;;;;;;5092552;28;20525;-85
2023/06/04 00:51:40;;;;;;;3.05;1.60;;;;;;;;;;5095634;28;20097;-85
2023/06/04 00:54:11;;;;;;;1.85;1.75;;;;;;;;;;5095175;28;20048;-85
2023/06/04 00:56:39;;;;;;;3.83;1.67;;;;;;;;;;5096175;28;20503;-85
2023/06/04 00:59:08;;;;;;;4.72;1.48;;;;;;;;;;5096373;28;20048;-86
2023/06/04 01:01:58;;;;;;;3.58;1.63;;;;;;;;;;5097000;28;20040;-85
2023/06/04 01:04:46;;;;;;;5.28;1.70;;;;;;;;;;5111629;28;20055;-85
2023/06/04 01:07:14;;;;;;;2.10;1.55;;;;;;;;;;5091300;28;20052;-86
2023/06/04 01:09:42;;;;;;;2.28;1.60;;;;;;;;;;5095074;28;20469;-85
2023/06/04 01:12:09;;;;;;;2.05;1.48;;;;;;;;;;5095985;28;20094;-85
2023/06/04 01:14:37;;;;;;;1.45;1.35;;;;;;;;;;5094957;28;20040;-86
2023/06/04 01:17:05;;;;;;;1.48;1.40;;;;;;;;;;5094778;28;20048;-86
2023/06/04 01:19:54;;;;;;;3.17;1.42;;;;;;;;;;5094954;28;20076;-85
2023/06/04 01:22:43;;;;;;;4.13;2.03;;;;;;;;;;5095748;28;20044;-85
2023/06/04 01:25:31;;;;;;;5.97;1.70;;;;;;;;;;5095531;28;20074;-85
2023/06/04 01:28:00;;;;;;;1.70;1.60;;;;;;;;;;5094492;28;20062;-85
2023/06/04 01:30:30;;;;;;;1.20;1.20;;;;;;;;;;5094364;28;20079;-86
2023/06/04 01:32:57;;;;;;;2.72;1.45;;;;;;;;;;5095415;28;20087;-85
2023/06/04 01:35:26;;;;;;;1.50;1.40;;;;;;;;;;5095509;28;20052;-85
2023/06/04 01:37:56;;;;;;;1.83;1.73;;;;;;;;;;5095137;28;20059;-85
2023/06/04 01:40:23;;;;;;;5.93;1.90;;;;;;;;;;5094407;28;20469;-86
2023/06/04 01:42:50;;;;;;;3.97;2.00;;;;;;;;;;5094450;28;20048;-85
2023/06/04 01:45:18;;;;;;;5.32;1.70;;;;;;;;;;5094241;28;20446;-85
2023/06/04 01:47:45;;;;;;;1.92;1.70;;;;;;;;;;5095191;28;20105;-85
2023/06/04 01:50:12;;;;;;;1.75;1.65;;;;;;;;;;5095300;28;20050;-85
2023/06/04 01:52:40;;;;;;;4.63;1.73;;;;;;;;;;5094186;28;20059;-85
2023/06/04 01:55:11;;;;;;;1.80;1.70;;;;;;;;;;5093933;28;20087;-85
2023/06/04 01:57:39;;;;;;;2.20;2.00;;;;;;;;;;5093666;28;20044;-85
2023/06/04 02:00:08;;;;;;;2.00;1.90;;;;;;;;;;5093537;28;20048;-85
2023/06/04 02:02:38;;;;;;;2.10;1.63;;;;;;;;;;5094612;28;20541;-85
2023/06/04 02:05:08;;;;;;;1.92;1.83;;;;;;;;;;5095045;28;20059;-85
2023/06/04 02:07:38;;;;;;;1.88;1.77;;;;;;;;;;5095202;28;20047;-85
2023/06/04 02:10:06;;;;;;;4.68;2.00;;;;;;;;;;5094096;28;20060;-85
2023/06/04 02:12:33;;;;;;;3.40;2.03;;;;;;;;;;5093937;28;20052;-85
2023/06/04 02:15:00;;;;;;;2.25;1.77;;;;;;;;;;5093941;28;20043;-85
2023/06/04 02:17:27;;;;;;;3.55;2.03;;;;;;;;;;5095918;28;20064;-85
2023/06/04 02:19:56;;;;;;;2.50;1.38;;;;;;;;;;5111517;28;20058;-85
2023/06/04 02:22:23;;;;;;;2.50;2.30;;;;;;;;;;5094837;28;20044;-85
2023/06/04 02:24:50;;;;;;;2.70;1.83;;;;;;;;;;5093970;28;20048;-85
2023/06/04 02:27:18;;;;;;;2.10;1.90;;;;;;;;;;5093588;28;20094;-85
2023/06/04 02:29:45;;;;;;;5.35;2.58;;;;;;;;;;5093504;28;20072;-85
2023/06/04 02:32:12;;;;;;;2.22;1.95;;;;;;;;;;5093319;28;20060;-85
2023/06/04 02:34:40;;;;;;;3.72;1.80;;;;;;;;;;5092971;28;20055;-85
2023/06/04 02:37:07;;;;;;;1.95;1.75;;;;;;;;;;5093370;28;20101;-85
2023/06/04 02:39:35;;;;;;;3.35;2.15;;;;;;;;;;5093497;28;20044;-85
2023/06/04 02:42:02;;;;;;;4.47;1.92;;;;;;;;;;5093351;28;20098;-86
2023/06/04 02:44:30;;;;;;;3.00;1.70;;;;;;;;;;5092974;28;20102;-85
2023/06/04 02:46:57;;;;;;;4.50;2.28;;;;;;;;;;5094110;28;20466;-85
2023/06/04 02:49:25;;;;;;;3.50;1.90;;;;;;;;;;5093014;28;20051;-85
2023/06/04 02:51:53;;;;;;;4.35;2.22;;;;;;;;;;5093127;28;20048;-85
2023/06/04 02:54:20;;;;;;;2.45;2.25;;;;;;;;;;5092739;28;20502;-85
2023/06/04 02:56:49;;;;;;;2.40;2.20;;;;;;;;;;5092732;28;20105;-85
2023/06/04 02:59:17;;;;;;;3.15;2.70;;;;;;;;;;5093913;28;20059;-85
2023/06/04 03:01:45;;;;;;;2.58;2.08;;;;;;;;;;5092670;28;20076;-85
2023/06/04 03:04:15;;;;;;;2.22;2.03;;;;;;;;;;5092708;28;20054;-85
2023/06/04 03:06:46;;;;;;;5.68;2.22;;;;;;;;;;5093816;28;20048;-85
2023/06/04 03:09:13;;;;;;;4.03;2.28;;;;;;;;;;5093920;28;20047;-85
2023/06/04 03:11:41;;;;;;;2.30;2.10;;;;;;;;;;5093690;28;20048;-85
2023/06/04 03:14:08;;;;;;;5.38;2.15;;;;;;;;;;5092274;28;20078;-85
2023/06/04 03:16:39;;;;;;;2.50;2.20;;;;;;;;;;5093596;28;20048;-85
2023/06/04 03:19:08;;;;;;;3.03;2.08;;;;;;;;;;5092771;28;20044;-85
2023/06/04 03:21:39;;;;;;;2.10;1.98;;;;;;;;;;5093485;28;20056;-85
2023/06/04 03:24:07;;;;;;;2.90;2.20;;;;;;;;;;5091882;28;20079;-84
2023/06/04 03:26:34;;;;;;;2.70;2.50;;;;;;;;;;5092173;28;20050;-85
2023/06/04 03:29:01;;;;;;;4.70;2.47;;;;;;;;;;5092424;28;20051;-85
2023/06/04 03:31:29;;;;;;;5.55;2.25;;;;;;;;;;5093313;28;20149;-85
2023/06/04 03:33:56;;;;;;;2.20;2.00;;;;;;;;;;5100195;28;20096;-85
2023/06/04 03:36:31;;;;;;;2.83;2.50;;;;;;;;;;5105480;28;20052;-85
2023/06/04 03:38:59;;;;;;;2.47;2.33;;;;;;;;;;5092609;28;20052;-85
2023/06/04 03:41:26;;;;;;;4.13;2.35;;;;;;;;;;5092001;28;20113;-85
2023/06/04 03:43:53;;;;;;;2.50;2.30;;;;;;;;;;5093157;28;20132;-85
2023/06/04 03:46:20;;;;;;;2.50;2.30;;;;;;;;;;5092075;28;20416;-85
2023/06/04 03:48:48;;;;;;;6.40;2.30;;;;;;;;;;5091955;28;20044;-85
2023/06/04 03:51:18;;;;;;;2.80;2.40;;;;;;;;;;5091781;28;20117;-85
2023/06/04 03:53:45;;;;;;;4.50;4.05;;;;;;;;;;5091780;28;20412;-85
2023/06/04 03:56:13;;;;;;;4.65;3.97;;;;;;;;;;5091918;28;20084;-85
2023/06/04 03:58:40;;;;;;;7.60;4.80;;;;;;;;;;5091965;28;20044;-85
2023/06/04 04:01:10;;;;;;;4.32;3.92;;;;;;;;;;5091910;28;20048;-85
2023/06/04 04:03:38;;;;;;;4.88;3.17;;;;;;;;;;5092121;28;20044;-85
2023/06/04 04:06:05;;;;;;;3.63;2.60;;;;;;;;;;5092837;28;20224;-85
2023/06/04 04:08:34;;;;;;;2.63;2.30;;;;;;;;;;5091806;28;20071;-85
2023/06/04 04:11:01;;;;;;;2.60;2.40;;;;;;;;;;5091648;28;20051;-84
2023/06/04 04:13:28;;;;;;;1.95;1.73;;;;;;;;;;5091632;28;20060;-85
2023/06/04 04:15:56;;;;;;;5.25;2.55;;;;;;;;;;5091537;28;20051;-85
2023/06/04 04:18:23;;;;;;;4.50;2.10;;;;;;;;;;5091563;28;20121;-85
2023/06/04 04:20:50;;;;;;;2.05;1.92;;;;;;;;;;5091385;28;20075;-85
2023/06/04 04:23:17;;;;;;;2.38;2.00;;;;;;;;;;5092661;28;20068;-85
2023/06/04 04:25:45;;;;;;;3.08;2.17;;;;;;;;;;5096471;28;20047;-85
2023/06/04 04:28:12;;;;;;;2.35;1.95;;;;;;;;;;5095599;28;20097;-84
2023/06/04 04:30:40;;;;;;;2.08;1.98;;;;;;;;;;5095734;28;20059;-85
2023/06/04 04:33:07;;;;;;;4.65;2.35;;;;;;;;;;5095548;28;20079;-85
2023/06/04 04:35:35;;;;;;;2.28;1.90;;;;;;;;;;5095800;28;20043;-85
2023/06/04 04:38:07;;;;;;;4.40;1.80;;;;;;;;;;5095538;28;20545;-85
2023/06/04 04:40:34;;;;;;;1.95;1.85;;;;;;;;;;5095461;28;20074;-85
2023/06/04 04:43:01;;;;;;;3.75;2.03;;;;;;;;;;5096361;28;20052;-85
2023/06/04 04:45:28;;;;;;;2.28;2.08;;;;;;;;;;5095261;28;20052;-85
2023/06/04 04:47:55;;;;;;;2.38;1.73;;;;;;;;;;5096517;28;20056;-85
2023/06/04 04:50:23;;;;;;;1.95;1.83;;;;;;;;;;5107783;28;20042;-85
2023/06/04 04:52:52;;;;;;;3.63;2.10;;;;;;;;;;5103446;28;20552;-85
2023/06/04 04:55:19;;;;;;;2.58;1.80;;;;;;;;;;5095144;28;20048;-85
2023/06/04 04:57:46;;;;;;;5.15;2.17;;;;;;;;;;5095300;28;20086;-85
2023/06/04 05:00:15;;;;;;;5.13;2.33;;;;;;;;;;5095883;28;20094;-85
2023/06/04 05:02:42;;;;;;;2.53;2.33;;;;;;;;;;5094745;28;20537;-85
2023/06/04 05:05:10;;;;;;;5.18;2.75;;;;;;;;;;5095052;28;20098;-85
2023/06/04 05:07:38;;;;;;;4.15;1.83;;;;;;;;;;5095233;28;20044;-85
2023/06/04 05:10:05;;;;;;;3.22;1.70;;;;;;;;;;5094687;28;20066;-84
2023/06/04 05:12:32;;;;;;;3.78;1.60;;;;;;;;;;5094725;28;20040;-85
2023/06/04 05:15:00;;;;;;;5.40;1.90;;;;;;;;;;5094827;28;20054;-85
2023/06/04 05:17:29;;;;;;;7.10;2.13;;;;;;;;;;5094558;28;20467;-85
2023/06/04 05:20:04;;;;;;;9.43;2.22;;;;;;;;;;5096061;28;20048;-85
2023/06/04 05:22:32;;;;;;;7.65;2.05;;;;;;;;;;5095583;28;20054;-86
2023/06/04 05:24:59;;;;;;;11.90;2.00;;;;;;;;;;5094934;28;20411;-86
2023/06/04 05:27:27;;;;;;;4.45;2.22;;;;;;;;;;5094417;28;20123;-85
2023/06/04 05:29:55;;;;;;;18.45;2.78;;;;;;;;;;5094838;28;20048;-85
2023/06/04 05:32:22;;;;;;;4.47;1.80;;;;;;;;;;5094359;28;20052;-85
2023/06/04 05:34:50;;;;;;;9.05;2.65;;;;;;;;;;5094397;28;20048;-86
2023/06/04 05:37:17;;;;;;;7.32;2.15;;;;;;;;;;5093274;28;20440;-85
2023/06/04 05:39:45;;;;;;;8.38;1.90;;;;;;;;;;5095457;28;20177;-84
2023/06/04 05:42:13;;;;;;;5.85;2.33;;;;;;;;;;5095268;28;20470;-86
2023/06/04 05:44:40;;;;;;;14.98;3.05;;;;;;;;;;5094441;28;20097;-86
2023/06/04 05:47:08;;;;;;;18.80;2.90;;;;;;;;;;5095024;28;20086;-85
2023/06/04 05:49:35;;;;;;;9.68;2.45;;;;;;;;;;5094276;28;20054;-85
2023/06/04 05:52:03;;;;;;;11.05;2.70;;;;;;;;;;5093949;28;20550;-85
2023/06/04 05:54:31;;;;;;;16.70;2.83;;;;;;;;;;5093903;28;20055;-86
2023/06/04 05:56:59;;;;;;;13.30;2.58;;;;;;;;;;5093766;28;20056;-86
2023/06/04 05:59:26;;;;;;;12.60;2.80;;;;;;;;;;5094038;28;20048;-85
2023/06/04 06:01:53;;;;;;;7.95;2.40;;;;;;;;;;5094099;28;20048;-85
2023/06/04 06:04:21;;;;;;;5.85;2.08;;;;;;;;;;5096023;28;20416;-85
2023/06/04 06:06:48;;;;;;;6.53;2.20;;;;;;;;;;5105708;28;20048;-85
2023/06/04 06:09:16;;;;;;;4.82;1.80;;;;;;;;;;5096554;28;20499;-86
2023/06/04 06:11:43;;;;;;;8.75;2.38;;;;;;;;;;5093590;28;20055;-84
2023/06/04 06:14:10;;;;;;;3.92;1.50;;;;;;;;;;5093770;28;20105;-86
2023/06/04 06:16:38;;;;;;;6.78;2.00;;;;;;;;;;5093031;28;20055;-85
2023/06/04 06:19:06;;;;;;;5.65;1.80;;;;;;;;;;5093496;28;20047;-85
2023/06/04 06:21:33;;;;;;;5.72;1.83;;;;;;;;;;5093474;28;20051;-84
2023/06/04 06:24:00;;;;;;;12.77;2.45;;;;;;;;;;5094504;28;20044;-84
2023/06/04 06:26:29;;;;;;;8.15;1.85;;;;;;;;;;5094469;28;20131;-86
2023/06/04 06:28:56;;;;;;;5.75;1.70;;;;;;;;;;5093477;28;20101;-85
2023/06/04 06:31:23;;;;;;;4.13;1.80;;;;;;;;;;5103592;28;20106;-85
2023/06/04 06:33:51;;;;;;;7.72;1.80;;;;;;;;;;5103036;28;20048;-84
2023/06/04 06:36:18;;;;;;;7.05;1.50;;;;;;;;;;5103601;28;20083;-85
2023/06/04 06:38:46;;;;;;;7.07;1.60;;;;;;;;;;5103478;28;20550;-83
2023/06/04 06:41:13;;;;;;;2.88;1.83;;;;;;;;;;5101738;28;20117;-86
2023/06/04 06:43:40;;;;;;;3.20;1.50;;;;;;;;;;5092629;28;20089;-85
2023/06/04 06:46:08;;;;;;;2.33;1.65;;;;;;;;;;5091875;28;20408;-85
2023/06/04 06:48:35;;;;;;;4.40;1.70;;;;;;;;;;5092554;28;20097;-84
2023/06/04 06:51:03;;;;;;;5.22;1.52;;;;;;;;;;5094649;28;20094;-85
2023/06/04 06:53:30;;;;;;;2.10;1.90;;;;;;;;;;5106327;28;20058;-85
2023/06/04 06:55:57;;;;;;;4.60;2.78;;;;;;;;;;5112164;28;20100;-86
2023/06/04 06:58:27;;;;;;;2.13;2.03;;;;;;;;;;5113368;28;20510;-85
2023/06/04 07:00:56;;;;;;;2.10;1.63;;;;;;;;;;5111985;28;20101;-86
2023/06/04 07:03:24;;;;;;;5.68;1.45;;;;;;;;;;5112209;28;20055;-85
2023/06/04 07:05:51;;;;;;;3.35;1.55;;;;;;;;;;5112931;28;20086;-86
2023/06/04 07:08:18;;;;;;;6.60;1.70;;;;;;;;;;5101452;28;20044;-86
2023/06/04 07:10:46;;;;;;;4.35;1.83;;;;;;;;;;5103593;28;20067;-85
2023/06/04 07:13:13;;;;;;;4.53;1.50;;;;;;;;;;5102690;28;20435;-86
2023/06/04 07:15:41;;;;;;;1.77;1.30;;;;;;;;;;5107190;28;20044;-84
2023/06/04 07:18:08;;;;;;;2.42;1.30;;;;;;;;;;5110480;28;20051;-83
2023/06/04 07:20:36;;;;;;;2.53;1.20;;;;;;;;;;5112950;28;20131;-83
2023/06/04 07:23:03;;;;;;;2.40;1.60;;;;;;;;;;5113975;28;20055;-83
2023/06/04 07:25:30;;;;;;;3.40;1.30;;;;;;;;;;5113447;28;20043;-85
2023/06/04 07:27:58;;;;;;;2.03;1.40;;;;;;;;;;5113700;28;20047;-84
2023/06/04 07:30:26;;;;;;;6.38;1.60;;;;;;;;;;5112362;28;20048;-83
2023/06/04 07:32:53;;;;;;;2.88;1.30;;;;;;;;;;5112545;28;20055;-84
2023/06/04 07:35:21;;;;;;;6.90;1.92;;;;;;;;;;5112795;28;20120;-85
2023/06/04 07:37:49;;;;;;;5.03;1.98;;;;;;;;;;5113771;28;20043;-82
2023/06/04 07:40:17;;;;;;;1.30;1.20;;;;;;;;;;5100141;28;20413;-84
2023/06/04 07:42:45;;;;;;;1.38;1.27;;;;;;;;;;5104223;28;20408;-84
2023/06/04 07:45:12;;;;;;;2.28;1.25;;;;;;;;;;5094747;28;20051;-85
2023/06/04 07:47:40;;;;;;;1.70;1.10;;;;;;;;;;5092224;28;20484;-83
2023/06/04 07:50:07;;;;;;;2.13;1.63;;;;;;;;;;5093137;28;20081;-84
2023/06/04 07:52:35;;;;;;;1.85;1.50;;;;;;;;;;5092102;28;20051;-86
2023/06/04 07:55:03;;;;;;;1.85;1.40;;;;;;;;;;5092555;28;20557;-85
2023/06/04 07:57:30;;;;;;;5.22;1.52;;;;;;;;;;5092060;28;20475;-84
2023/06/04 07:59:57;;;;;;;4.97;1.55;;;;;;;;;;5091317;28;20079;-86
2023/06/04 08:02:25;;;;;;;1.40;1.30;;;;;;;;;;5092494;28;20052;-87
2023/06/04 08:04:52;;;;;;;1.38;1.27;;;;;;;;;;5092489;28;20077;-87
2023/06/04 08:07:20;;;;;;;1.23;1.23;;;;;;;;;;5092387;28;20052;-85
2023/06/04 08:09:47;;;;;;;1.52;1.20;;;;;;;;;;5092067;28;20052;-85
2023/06/04 08:12:15;;;;;;;2.72;1.30;;;;;;;;;;5091902;28;20092;-84
2023/06/04 08:14:45;;;;;;;8.98;1.30;;;;;;;;;;5093036;28;20047;-84
2023/06/04 08:17:13;;;;;;;2.72;0.80;;;;;;;;;;5091565;28;20048;-84
2023/06/04 08:19:40;;;;;;;3.78;1.20;;;;;;;;;;5092229;28;20047;-86
2023/06/04 08:22:09;;;;;;;2.03;1.20;;;;;;;;;;5092143;28;20109;-88
2023/06/04 08:24:36;;;;;;;2.17;0.88;;;;;;;;;;5092943;28;20071;-85
2023/06/04 08:27:04;;;;;;;1.10;0.77;;;;;;;;;;5094637;28;20533;-87
2023/06/04 08:29:31;;;;;;;4.40;0.98;;;;;;;;;;5092514;28;20071;-85
2023/06/04 08:31:58;;;;;;;1.00;0.70;;;;;;;;;;5092457;28;20059;-85
2023/06/04 08:34:25;;;;;;;0.98;0.90;;;;;;;;;;5092424;28;20055;-87
2023/06/04 08:36:53;;;;;;;2.25;0.93;;;;;;;;;;5092828;28;20101;-84
2023/06/04 08:39:22;;;;;;;3.40;1.00;;;;;;;;;;5100486;28;20063;-84
2023/06/04 08:41:51;;;;;;;1.67;1.10;;;;;;;;;;5092365;28;20047;-86
2023/06/04 08:44:19;;;;;;;5.68;1.05;;;;;;;;;;5092269;28;20129;-83
2023/06/04 08:46:48;;;;;;;1.70;1.10;;;;;;;;;;5092446;28;20218;-88
2023/06/04 08:49:16;;;;;;;0.85;0.85;;;;;;;;;;5092286;28;20052;-83
2023/06/04 08:51:44;;;;;;;1.20;1.10;;;;;;;;;;5092286;28;20087;-87
2023/06/04 08:54:12;;;;;;;4.03;1.00;;;;;;;;;;5092184;28;20260;-87
2023/06/04 08:56:39;;;;;;;2.60;0.95;;;;;;;;;;5092102;28;20044;-86
2023/06/04 08:59:07;;;;;;;0.75;0.75;;;;;;;;;;5092491;28;20052;-89
2023/06/04 09:01:38;;;;;;;0.93;0.90;;;;;;;;;;5092342;28;20051;-88
2023/06/04 09:04:07;;;;;;;1.80;1.10;;;;;;;;;;5093630;28;20484;-86
2023/06/04 09:06:41;;;;;;;3.88;1.05;;;;;;;;;;5092236;28;20484;-88
2023/06/04 09:09:10;;;;;;;2.28;1.20;;;;;;;;;;5092642;28;20090;-89
2023/06/04 09:11:46;;;;;;;3.15;1.02;;;;;;;;;;5095242;28;20113;-84
2023/06/04 09:14:18;;;;;;;1.05;0.98;;;;;;;;;;5096043;28;20116;-86
2023/06/04 09:16:53;;;;;;;2.60;1.10;;;;;;;;;;5096430;28;20055;-90
2023/06/04 09:19:21;;;;;;;1.92;1.15;;;;;;;;;;5095582;28;20070;-85
2023/06/04 09:21:52;;;;;;;2.03;1.17;;;;;;;;;;5095819;28;20097;-86
2023/06/04 09:24:20;;;;;;;2.47;1.33;;;;;;;;;;5095403;28;20056;-84
2023/06/04 09:26:48;;;;;;;1.58;1.05;;;;;;;;;;5095186;28;20088;-91
2023/06/04 09:29:16;;;;;;;3.75;1.15;;;;;;;;;;5095123;28;20051;-86
2023/06/04 09:31:47;;;;;;;1.45;1.08;;;;;;;;;;5094797;28;20075;-83
2023/06/04 09:34:15;;;;;;;2.95;1.00;;;;;;;;;;5095443;28;20048;-87
2023/06/04 09:36:42;;;;;;;3.65;1.20;;;;;;;;;;5094824;28;20054;-86
2023/06/04 09:39:16;;;;;;;0.93;0.93;;;;;;;;;;5095318;28;20052;-85
2023/06/04 09:41:44;;;;;;;1.88;0.90;;;;;;;;;;5095074;28;20508;-85
2023/06/04 09:44:11;;;;;;;3.05;1.10;;;;;;;;;;5094710;28;20051;-90
2023/06/04 09:46:39;;;;;;;2.08;1.27;;;;;;;;;;5095179;28;20063;-86
2023/06/04 09:49:06;;;;;;;1.75;1.45;;;;;;;;;;5095303;28;20056;-91
2023/06/04 09:51:34;;;;;;;0.82;0.82;;;;;;;;;;5095272;28;20048;-88
2023/06/04 09:54:03;;;;;;;1.10;1.10;;;;;;;;;;5100778;28;20082;-85
2023/06/04 09:56:30;;;;;;;3.30;1.20;;;;;;;;;;5102252;28;20052;-86
2023/06/04 09:59:02;;;;;;;2.90;1.25;;;;;;;;;;5094709;28;20097;-85
2023/06/04 10:01:30;;;;;;;2.88;1.20;;;;;;;;;;5094714;28;20052;-84
2023/06/04 10:03:59;;;;;;;2.42;1.25;;;;;;;;;;5094174;28;20048;-83
2023/06/04 10:06:27;;;;;;;1.38;1.20;;;;;;;;;;5095959;28;20071;-86
2023/06/04 10:08:57;;;;;;;1.40;1.30;;;;;;;;;;5097144;28;20047;-90
2023/06/04 10:11:33;;;;;;;1.20;1.20;;;;;;;;;;5101356;28;20040;-86
2023/06/04 10:14:07;;;;;;;2.92;1.48;;;;;;;;;;5094263;28;20487;-85
2023/06/04 10:16:35;;;;;;;2.67;1.00;;;;;;;;;;5094982;28;20404;-89
2023/06/04 10:19:02;;;;;;;4.75;1.15;;;;;;;;;;5094250;28;20134;-85
2023/06/04 10:21:34;;;;;;;2.92;1.30;;;;;;;;;;5093487;28;20487;-83
2023/06/04 10:24:05;;;;;;;2.13;1.40;;;;;;;;;;5095002;28;20097;-84
2023/06/04 10:26:34;;;;;;;5.28;1.67;;;;;;;;;;5094237;28;20044;-88
2023/06/04 10:29:02;;;;;;;2.28;1.60;;;;;;;;;;5094034;28;20455;-87
2023/06/04 10:31:30;;;;;;;4.20;1.38;;;;;;;;;;5093798;28;20113;-85
2023/06/04 10:33:57;;;;;;;2.72;1.27;;;;;;;;;;5094580;28;20040;-88
2023/06/04 10:36:25;;;;;;;3.03;1.35;;;;;;;;;;5094986;28;20098;-88
2023/06/04 10:38:53;;;;;;;1.83;1.73;;;;;;;;;;5094068;28;20070;-83
2023/06/04 10:41:23;;;;;;;4.22;1.10;;;;;;;;;;5093987;28;20139;-84
2023/06/04 10:43:51;;;;;;;1.42;1.33;;;;;;;;;;5096360;28;20055;-87
2023/06/04 10:46:21;;;;;;;4.50;1.33;;;;;;;;;;5094451;28;20048;-86
2023/06/04 10:48:49;;;;;;;1.55;1.40;;;;;;;;;;5094051;28;20051;-88
2023/06/04 10:51:16;;;;;;;1.55;1.45;;;;;;;;;;5092994;28;20040;-88
2023/06/04 10:53:44;;;;;;;2.75;1.50;;;;;;;;;;5093814;28;20056;-84
2023/06/04 10:56:11;;;;;;;6.38;1.45;;;;;;;;;;5093340;28;20044;-86
2023/06/04 10:58:39;;;;;;;2.90;1.42;;;;;;;;;;5094478;28;20495;-85
2023/06/04 11:01:06;;;;;;;1.80;1.70;;;;;;;;;;5094201;28;20048;-86
2023/06/04 11:03:37;;;;;;;2.78;1.70;;;;;;;;;;5094777;28;20054;-89
2023/06/04 11:06:18;;;;;;;2.95;1.52;;;;;;;;;;5093250;28;20048;-90
2023/06/04 11:08:45;;;;;;;2.38;1.60;;;;;;;;;;5094276;28;20079;-85
2023/06/04 11:11:13;;;;;;;2.60;1.95;;;;;;;;;;5100342;28;20036;-85
2023/06/04 11:13:41;;;;;;;2.92;1.50;;;;;;;;;;5095521;28;20052;-85
2023/06/04 11:16:21;;;;;;;2.03;1.83;;;;;;;;;;5092765;28;20052;-88
2023/06/04 11:18:56;;;;;;;3.63;1.50;;;;;;;;;;5093282;28;20469;-87
2023/06/04 11:21:24;;;;;;;1.55;1.40;;;;;;;;;;5093437;28;20054;-90
2023/06/04 11:23:59;;;;;;;2.90;1.67;;;;;;;;;;5093201;28;20101;-88
2023/06/04 11:26:33;;;;;;;4.30;1.92;;;;;;;;;;5094243;28;20048;-87
2023/06/04 11:29:06;;;;;;;4.78;1.90;;;;;;;;;;5093265;28;20054;-88
2023/06/04 11:31:45;;;;;;;2.08;1.92;;;;;;;;;;5092728;28;20109;-85
2023/06/04 11:34:23;;;;;;;2.50;2.00;;;;;;;;;;5093349;28;20434;-89
2023/06/04 11:36:52;;;;;;;2.38;1.88;;;;;;;;;;5094086;28;20048;-91
2023/06/04 11:39:20;;;;;;;3.30;1.73;;;;;;;;;;5092907;28;20052;-86
2023/06/04 11:41:48;;;;;;;3.55;2.05;;;;;;;;;;5093846;28;20420;-94
2023/06/04 11:44:18;;;;;;;2.83;1.88;;;;;;;;;;5092606;28;20398;-85
2023/06/04 11:46:48;;;;;;;4.95;1.60;;;;;;;;;;5092869;28;20496;-88
2023/06/04 11:49:16;;;;;;;2.05;1.40;;;;;;;;;;5092588;28;20130;-88
2023/06/04 11:51:47;;;;;;;1.77;1.50;;;;;;;;;;5092390;28;20048;-85
2023/06/04 11:54:15;;;;;;;7.18;2.10;;;;;;;;;;5092755;28;20102;-87
2023/06/04 11:56:46;;;;;;;3.35;1.77;;;;;;;;;;5092804;28;20470;-86
2023/06/04 11:59:14;;;;;;;3.47;1.63;;;;;;;;;;5093272;28;20051;-91
2023/06/04 12:01:42;;;;;;;3.25;1.40;;;;;;;;;;5092627;28;20048;-86
2023/06/04 12:04:15;;;;;;;1.60;1.50;;;;;;;;;;5103998;28;20529;-88
2023/06/04 12:06:52;;;;;;;5.93;1.70;;;;;;;;;;5112879;28;20071;-89
2023/06/04 12:09:23;;;;;;;1.50;1.40;;;;;;;;;;5113043;28;20062;-86
2023/06/04 12:11:51;;;;;;;2.05;1.58;;;;;;;;;;5112808;28;20081;-87
2023/06/04 12:14:18;;;;;;;3.00;1.25;;;;;;;;;;5112844;28;20120;-87
2023/06/04 12:16:59;;;;;;;4.28;1.73;;;;;;;;;;5112945;28;20101;-87
2023/06/04 12:19:27;;;;;;;1.55;1.17;;;;;;;;;;5114503;28;20057;-87
2023/06/04 12:22:04;;;;;;;1.48;1.38;;;;;;;;;;5113036;28;20047;-85
2023/06/04 12:24:46;;;;;;;3.17;1.33;;;;;;;;;;5112898;28;20055;-84
2023/06/04 12:27:13;;;;;;;2.70;1.60;;;;;;;;;;5118838;28;20044;-85
2023/06/04 12:29:40;;;;;;;1.30;1.20;;;;;;;;;;5120537;28;20051;-87
2023/06/04 12:32:09;;;;;;;2.20;1.50;;;;;;;;;;5112220;28;20055;-85
2023/06/04 12:34:40;;;;;;;4.32;1.25;;;;;;;;;;5112383;28;20484;-85
2023/06/04 12:37:07;;;;;;;2.90;1.40;;;;;;;;;;5112512;28;20047;-88
2023/06/04 12:39:36;;;;;;;1.40;1.40;;;;;;;;;;5112596;28;20066;-84
2023/06/04 12:42:06;;;;;;;1.27;1.17;;;;;;;;;;5112823;28;20055;-86
2023/06/04 12:44:33;;;;;;;2.30;1.23;;;;;;;;;;5113071;28;20052;-88
2023/06/04 12:47:02;;;;;;;2.28;1.40;;;;;;;;;;5116436;28;20044;-85
2023/06/04 12:49:29;;;;;;;1.50;1.40;;;;;;;;;;5116595;28;20124;-85
2023/06/04 12:51:56;;;;;;;5.95;1.63;;;;;;;;;;5116318;28;20070;-87
2023/06/04 12:54:24;;;;;;;1.45;1.30;;;;;;;;;;5117617;28;20051;-86
2023/06/04 12:56:51;;;;;;;1.40;1.30;;;;;;;;;;5117024;28;20118;-87
2023/06/04 12:59:18;;;;;;;1.00;1.00;;;;;;;;;;5116278;28;20063;-87
2023/06/04 13:01:45;;;;;;;2.88;1.13;;;;;;;;;;5115808;28;20411;-84
2023/06/04 13:04:13;;;;;;;1.30;1.20;;;;;;;;;;5116357;28;20055;-85
2023/06/04 13:06:40;;;;;;;1.80;1.08;;;;;;;;;;5116094;28;20090;-88
2023/06/04 13:09:11;;;;;;;2.15;1.20;;;;;;;;;;5116256;28;20043;-85
2023/06/04 13:11:39;;;;;;;1.67;1.15;;;;;;;;;;5116385;28;20051;-92
2023/06/04 13:14:07;;;;;;;1.23;1.20;;;;;;;;;;5116474;28;20063;-87
2023/06/04 13:16:35;;;;;;;1.40;1.30;;;;;;;;;;5117715;28;20067;-87
2023/06/04 13:19:03;;;;;;;2.55;1.17;;;;;;;;;;5115776;28;20047;-89
2023/06/04 13:21:30;;;;;;;1.23;1.20;;;;;;;;;;5115883;28;20043;-89
2023/06/04 13:23:57;;;;;;;1.70;1.30;;;;;;;;;;5115950;28;20071;-86
2023/06/04 13:26:25;;;;;;;2.30;1.13;;;;;;;;;;5116545;28;20491;-92
2023/06/04 13:28:52;;;;;;;2.80;1.10;;;;;;;;;;5116120;28;20055;-87
2023/06/04 13:31:19;;;;;;;1.55;1.45;;;;;;;;;;5115484;28;20511;-88
2023/06/04 13:33:47;;;;;;;1.70;1.30;;;;;;;;;;5115552;28;20138;-83
2023/06/04 13:36:14;;;;;;;2.28;1.15;;;;;;;;;;5115983;28;20109;-91
2023/06/04 13:38:43;;;;;;;1.45;1.10;;;;;;;;;;5116659;28;20461;-87
2023/06/04 13:41:10;;;;;;;1.23;0.95;;;;;;;;;;5117647;28;20058;-86
2023/06/04 13:43:38;;;;;;;1.80;0.93;;;;;;;;;;5119386;28;20052;-86
2023/06/04 13:46:06;;;;;;;3.55;1.27;;;;;;;;;;5124309;28;20048;-88
2023/06/04 13:48:33;;;;;;;1.17;1.17;;;;;;;;;;5116017;28;20101;-93
2023/06/04 13:51:02;;;;;;;1.92;1.20;;;;;;;;;;5116046;28;20399;-91
2023/06/04 13:53:30;;;;;;;3.22;1.23;;;;;;;;;;5115941;28;20104;-89
2023/06/04 13:55:57;;;;;;;1.00;0.90;;;;;;;;;;5114968;28;20044;-88
2023/06/04 13:58:25;;;;;;;1.17;1.00;;;;;;;;;;5114181;28;20052;-89
2023/06/04 14:00:53;;;;;;;1.10;1.10;;;;;;;;;;5116108;28;20053;-89
2023/06/04 14:03:21;;;;;;;1.67;0.98;;;;;;;;;;5115589;28;20479;-90
2023/06/04 14:05:49;;;;;;;3.30;1.70;;;;;;;;;;5115310;28;20055;-89
2023/06/04 14:08:16;;;;;;;1.20;1.08;;;;;;;;;;5115253;28;20048;-87
2023/06/04 14:10:44;;;;;;;1.75;0.93;;;;;;;;;;5115422;28;20479;-86
2023/06/04 14:13:11;;;;;;;2.30;1.20;;;;;;;;;;5115578;28;20043;-87
2023/06/04 14:15:38;;;;;;;1.35;1.20;;;;;;;;;;5114851;28;20402;-88
2023/06/04 14:18:07;;;;;;;3.72;1.20;;;;;;;;;;5114975;28;20065;-88
2023/06/04 14:20:35;;;;;;;2.17;1.10;;;;;;;;;;5115060;28;20047;-88
2023/06/04 14:23:02;;;;;;;4.20;1.15;;;;;;;;;;5114944;28;20101;-88
2023/06/04 14:25:29;;;;;;;2.30;1.00;;;;;;;;;;5114750;28;20108;-87
2023/06/04 14:27:57;;;;;;;3.33;1.00;;;;;;;;;;5115579;28;20054;-88
2023/06/04 14:30:24;;;;;;;1.10;1.00;;;;;;;;;;5114841;28;20483;-89
2023/06/04 14:32:51;;;;;;;2.35;1.13;;;;;;;;;;5114210;28;20048;-87
2023/06/04 14:35:19;;;;;;;1.48;1.23;;;;;;;;;;5115058;28;20401;-85
2023/06/04 14:37:46;;;;;;;1.40;1.30;;;;;;;;;;5114649;28;20067;-86
2023/06/04 14:40:13;;;;;;;3.22;1.10;;;;;;;;;;5115027;28;20093;-90
2023/06/04 14:42:40;;;;;;;3.40;1.02;;;;;;;;;;5114732;28;20086;-86
2023/06/04 14:45:08;;;;;;;2.63;1.27;;;;;;;;;;5115345;28;20063;-87
2023/06/04 14:47:35;;;;;;;2.90;1.33;;;;;;;;;;5114908;28;20071;-90
2023/06/04 14:50:02;;;;;;;2.97;1.10;;;;;;;;;;5114592;28;20063;-87
2023/06/04 14:52:30;;;;;;;4.28;1.40;;;;;;;;;;5114685;28;20048;-88